sensor_id;sensor_type;location;lat;lon;timestamp;pressure;altitude;pressure_sealevel;temperature;humidity
7058;BME280;3570;43.080;25.628;2023-02-04T00:01:52;-19503.56;;;1.72;100.00
7058;BME280;3570;43.080;25.628;2023-02-04T00:04:36;-19508.13;;;1.88;100.00
7058;BME280;3570;43.080;25.628;2023-02-04T00:07:22;-19506.78;;;1.83;100.00
7058;BME280;3570;43.080;25.628;2023-02-04T00:10:06;-19507.81;;;1.87;100.00
7058;BME280;3570;43.080;25.628;2023-02-04T00:12:51;-19502.97;;;1.70;100.00
7058;BME280;3570;43.080;25.628;2023-02-04T00:15:35;-19501.66;;;1.66;100.00
7058;BME280;3570;43.080;25.628;2023-02-04T00:18:19;-19500.47;;;1.62;100.00
7058;BME280;3570;43.080;25.628;2023-02-04T00:21:03;-19498.13;;;1.54;100.00
7058;BME280;3570;43.080;25.628;2023-02-04T00:23:47;-19488.72;;;1.22;100.00
7058;BME280;3570;43.080;25.628;2023-02-04T00:26:33;-19494.59;;;1.42;100.00
7058;BME280;3570;43.080;25.628;2023-02-04T00:29:17;-19483.88;;;1.05;100.00
7058;BME280;3570;43.080;25.628;2023-02-04T00:32:01;-19481.97;;;0.98;100.00
7058;BME280;3570;43.080;25.628;2023-02-04T00:34:45;-19488.72;;;1.22;100.00
7058;BME280;3570;43.080;25.628;2023-02-04T00:37:30;-19473.00;;;0.68;100.00
7058;BME280;3570;43.080;25.628;2023-02-04T00:40:14;-19487.41;;;1.17;100.00
7058;BME280;3570;43.080;25.628;2023-02-04T00:42:58;-19486.97;;;1.16;100.00
7058;BME280;3570;43.080;25.628;2023-02-04T00:45:42;-19485.03;;;1.09;100.00
7058;BME280;3570;43.080;25.628;2023-02-04T00:48:26;-19484.16;;;1.06;100.00
7058;BME280;3570;43.080;25.628;2023-02-04T00:51:10;-19476.38;;;0.79;100.00
7058;BME280;3570;43.080;25.628;2023-02-04T00:53:54;-19474.75;;;0.74;100.00
7058;BME280;3570;43.080;25.628;2023-02-04T00:56:38;-19469.75;;;0.57;100.00
7058;BME280;3570;43.080;25.628;2023-02-04T00:59:22;-19478.00;;;0.85;100.00
7058;BME280;3570;43.080;25.628;2023-02-04T01:02:07;-19474.75;;;0.74;100.00
7058;BME280;3570;43.080;25.628;2023-02-04T01:04:51;-19477.25;;;0.82;100.00
7058;BME280;3570;43.080;25.628;2023-02-04T01:07:35;-19476.22;;;0.79;100.00
7058;BME280;3570;43.080;25.628;2023-02-04T01:10:19;-19470.78;;;0.60;100.00
7058;BME280;3570;43.080;25.628;2023-02-04T01:13:03;-19478.28;;;0.86;100.00
7058;BME280;3570;43.080;25.628;2023-02-04T01:15:47;-19479.31;;;0.89;100.00
7058;BME280;3570;43.080;25.628;2023-02-04T01:18:31;-19479.47;;;0.90;100.00
7058;BME280;3570;43.080;25.628;2023-02-04T01:21:15;-19481.97;;;0.98;100.00
7058;BME280;3570;43.080;25.628;2023-02-04T01:23:59;-19482.84;;;1.02;100.00
7058;BME280;3570;43.080;25.628;2023-02-04T01:26:43;-19486.22;;;1.13;100.00
7058;BME280;3570;43.080;25.628;2023-02-04T01:29:27;-19480.63;;;0.94;100.00
7058;BME280;3570;43.080;25.628;2023-02-04T01:32:11;-19487.25;;;1.17;100.00
7058;BME280;3570;43.080;25.628;2023-02-04T01:34:55;-19488.28;;;1.20;100.00
7058;BME280;3570;43.080;25.628;2023-02-04T01:37:39;-19484.31;;;1.07;100.00
7058;BME280;3570;43.080;25.628;2023-02-04T01:40:23;-19484.59;;;1.08;100.00
7058;BME280;3570;43.080;25.628;2023-02-04T01:43:08;-19483.88;;;1.05;100.00
7058;BME280;3570;43.080;25.628;2023-02-04T01:45:53;-19494.75;;;1.42;100.00
7058;BME280;3570;43.080;25.628;2023-02-04T01:48:37;-19491.81;;;1.32;100.00
7058;BME280;3570;43.080;25.628;2023-02-04T01:51:25;-19500.19;;;1.61;100.00
7058;BME280;3570;43.080;25.628;2023-02-04T01:54:11;-19502.97;;;1.70;100.00
7058;BME280;3570;43.080;25.628;2023-02-04T01:56:56;-19497.25;;;1.51;100.00
7058;BME280;3570;43.080;25.628;2023-02-04T01:59:45;-19486.81;;;1.15;100.00
7058;BME280;3570;43.080;25.628;2023-02-04T02:02:50;-19505.75;;;1.80;100.00
7058;BME280;3570;43.080;25.628;2023-02-04T02:05:43;-19506.34;;;1.82;100.00
7058;BME280;3570;43.080;25.628;2023-02-04T02:08:27;-19500.19;;;1.61;100.00
7058;BME280;3570;43.080;25.628;2023-02-04T02:11:11;-19509.72;;;1.93;100.00
7058;BME280;3570;43.080;25.628;2023-02-04T02:13:56;-19506.94;;;1.84;100.00
7058;BME280;3570;43.080;25.628;2023-02-04T02:16:40;-19508.13;;;1.88;100.00
7058;BME280;3570;43.080;25.628;2023-02-04T02:19:28;-19510.16;;;1.95;100.00
7058;BME280;3570;43.080;25.628;2023-02-04T02:22:39;-19514.44;;;2.10;100.00
7058;BME280;3570;43.080;25.628;2023-02-04T02:25:25;-19505.31;;;1.78;100.00
7058;BME280;3570;43.080;25.628;2023-02-04T02:28:13;-19499.16;;;1.57;100.00
7058;BME280;3570;43.080;25.628;2023-02-04T02:30:57;-19505.16;;;1.78;100.00
7058;BME280;3570;43.080;25.628;2023-02-04T02:33:41;-19508.25;;;1.88;100.00
7058;BME280;3570;43.080;25.628;2023-02-04T02:36:25;-19502.81;;;1.70;100.00
7058;BME280;3570;43.080;25.628;2023-02-04T02:39:09;-19515.16;;;2.12;100.00
7058;BME280;3570;43.080;25.628;2023-02-04T02:41:55;-19507.81;;;1.87;100.00
7058;BME280;3570;43.080;25.628;2023-02-04T02:44:40;-19518.53;;;2.24;100.00
7058;BME280;3570;43.080;25.628;2023-02-04T02:47:24;-19521.03;;;2.32;100.00
7058;BME280;3570;43.080;25.628;2023-02-04T02:50:14;-19521.47;;;2.34;100.00
7058;BME280;3570;43.080;25.628;2023-02-04T02:52:59;-19499.88;;;1.60;100.00
7058;BME280;3570;43.080;25.628;2023-02-04T02:55:44;-19513.09;;;2.05;100.00
7058;BME280;3570;43.080;25.628;2023-02-04T02:58:33;-19499.88;;;1.60;100.00
7058;BME280;3570;43.080;25.628;2023-02-04T03:01:18;-19509.28;;;1.92;100.00
7058;BME280;3570;43.080;25.628;2023-02-04T03:04:02;-19503.25;;;1.71;100.00
7058;BME280;3570;43.080;25.628;2023-02-04T03:06:47;-19507.22;;;1.85;100.00
7058;BME280;3570;43.080;25.628;2023-02-04T03:09:31;-19504.16;;;1.74;100.00
7058;BME280;3570;43.080;25.628;2023-02-04T03:12:16;-19515.75;;;2.14;100.00
7058;BME280;3570;43.080;25.628;2023-02-04T03:14:59;-19514.88;;;2.11;100.00
7058;BME280;3570;43.080;25.628;2023-02-04T03:17:44;-19515.31;;;2.13;100.00
7058;BME280;3570;43.080;25.628;2023-02-04T03:20:29;-19517.06;;;2.19;100.00
7058;BME280;3570;43.080;25.628;2023-02-04T03:23:14;-19504.44;;;1.75;100.00
7058;BME280;3570;43.080;25.628;2023-02-04T03:25:58;-19518.69;;;2.24;100.00
7058;BME280;3570;43.080;25.628;2023-02-04T03:28:43;-19517.50;;;2.20;100.00
7058;BME280;3570;43.080;25.628;2023-02-04T03:31:27;-19519.28;;;2.26;100.00
7058;BME280;3570;43.080;25.628;2023-02-04T03:34:11;-19509.13;;;1.91;100.00
7058;BME280;3570;43.080;25.628;2023-02-04T03:36:55;-19515.91;;;2.15;100.00
7058;BME280;3570;43.080;25.628;2023-02-04T03:39:39;-19506.34;;;1.82;100.00
7058;BME280;3570;43.080;25.628;2023-02-04T03:42:23;-19512.50;;;2.03;100.00
7058;BME280;3570;43.080;25.628;2023-02-04T03:45:08;-19518.69;;;2.24;100.00
7058;BME280;3570;43.080;25.628;2023-02-04T03:47:52;-19519.28;;;2.26;100.00
7058;BME280;3570;43.080;25.628;2023-02-04T03:50:36;-19521.47;;;2.34;100.00
7058;BME280;3570;43.080;25.628;2023-02-04T03:53:20;-19520.44;;;2.30;100.00
7058;BME280;3570;43.080;25.628;2023-02-04T03:56:05;-19521.31;;;2.33;100.00
7058;BME280;3570;43.080;25.628;2023-02-04T03:58:49;-19521.19;;;2.33;100.00
7058;BME280;3570;43.080;25.628;2023-02-04T04:01:33;-19507.81;;;1.87;100.00
7058;BME280;3570;43.080;25.628;2023-02-04T04:04:17;-19525.00;;;2.46;100.00
7058;BME280;3570;43.080;25.628;2023-02-04T04:07:02;-19527.34;;;2.54;100.00
7058;BME280;3570;43.080;25.628;2023-02-04T04:09:46;-19526.31;;;2.50;100.00
7058;BME280;3570;43.080;25.628;2023-02-04T04:12:30;-19522.22;;;2.36;100.00
7058;BME280;3570;43.080;25.628;2023-02-04T04:15:13;-19518.69;;;2.24;100.00
7058;BME280;3570;43.080;25.628;2023-02-04T04:17:58;-19508.56;;;1.89;100.00
7058;BME280;3570;43.080;25.628;2023-02-04T04:20:41;-19511.50;;;2.00;100.00
7058;BME280;3570;43.080;25.628;2023-02-04T04:23:26;-19519.28;;;2.26;100.00
7058;BME280;3570;43.080;25.628;2023-02-04T04:26:09;-19513.69;;;2.07;100.00
7058;BME280;3570;43.080;25.628;2023-02-04T04:28:53;-19523.53;;;2.41;100.00
7058;BME280;3570;43.080;25.628;2023-02-04T04:31:37;-19517.81;;;2.21;100.00
7058;BME280;3570;43.080;25.628;2023-02-04T04:34:21;-19522.94;;;2.39;100.00
7058;BME280;3570;43.080;25.628;2023-02-04T04:37:05;-19520.16;;;2.29;100.00
7058;BME280;3570;43.080;25.628;2023-02-04T04:39:49;-19524.56;;;2.44;100.00
7058;BME280;3570;43.080;25.628;2023-02-04T04:42:33;-19523.53;;;2.41;100.00
7058;BME280;3570;43.080;25.628;2023-02-04T04:45:17;-19513.41;;;2.06;100.00
7058;BME280;3570;43.080;25.628;2023-02-04T04:48:02;-19516.91;;;2.18;100.00
7058;BME280;3570;43.080;25.628;2023-02-04T04:50:47;-19526.03;;;2.49;100.00
7058;BME280;3570;43.080;25.628;2023-02-04T04:53:31;-19523.25;;;2.40;100.00
7058;BME280;3570;43.080;25.628;2023-02-04T04:56:14;-19521.91;;;2.35;100.00
7058;BME280;3570;43.080;25.628;2023-02-04T04:58:58;-19520.16;;;2.29;100.00
7058;BME280;3570;43.080;25.628;2023-02-04T05:01:42;-19517.06;;;2.19;100.00
7058;BME280;3570;43.080;25.628;2023-02-04T05:04:26;-19531.91;;;2.69;100.00
7058;BME280;3570;43.080;25.628;2023-02-04T05:07:10;-19528.38;;;2.57;100.00
7058;BME280;3570;43.080;25.628;2023-02-04T05:09:54;-19527.50;;;2.54;100.00
7058;BME280;3570;43.080;25.628;2023-02-04T05:12:38;-19525.59;;;2.48;100.00
7058;BME280;3570;43.080;25.628;2023-02-04T05:15:22;-19527.78;;;2.55;100.00
7058;BME280;3570;43.080;25.628;2023-02-04T05:18:06;-19527.19;;;2.53;100.00
7058;BME280;3570;43.080;25.628;2023-02-04T05:20:50;-19524.56;;;2.44;100.00
7058;BME280;3570;43.080;25.628;2023-02-04T05:23:34;-19516.47;;;2.17;100.00
7058;BME280;3570;43.080;25.628;2023-02-04T05:26:18;-19526.03;;;2.49;100.00
7058;BME280;3570;43.080;25.628;2023-02-04T05:29:02;-19524.84;;;2.45;100.00
7058;BME280;3570;43.080;25.628;2023-02-04T05:31:46;-19525.72;;;2.48;100.00
7058;BME280;3570;43.080;25.628;2023-02-04T05:34:30;-19525.16;;;2.46;100.00
7058;BME280;3570;43.080;25.628;2023-02-04T05:37:14;-19525.16;;;2.46;100.00
7058;BME280;3570;43.080;25.628;2023-02-04T05:40:00;-19516.63;;;2.17;100.00
7058;BME280;3570;43.080;25.628;2023-02-04T05:42:44;-19519.56;;;2.27;100.00
7058;BME280;3570;43.080;25.628;2023-02-04T05:45:28;-19523.09;;;2.39;100.00
7058;BME280;3570;43.080;25.628;2023-02-04T05:48:12;-19522.34;;;2.37;100.00
7058;BME280;3570;43.080;25.628;2023-02-04T05:50:55;-19516.91;;;2.18;100.00
7058;BME280;3570;43.080;25.628;2023-02-04T05:53:39;-19533.22;;;2.74;100.00
7058;BME280;3570;43.080;25.628;2023-02-04T05:56:23;-19525.72;;;2.48;100.00
7058;BME280;3570;43.080;25.628;2023-02-04T05:59:10;-19528.97;;;2.59;100.00
7058;BME280;3570;43.080;25.628;2023-02-04T06:01:54;-19531.47;;;2.68;100.00
7058;BME280;3570;43.080;25.628;2023-02-04T06:04:38;-19541.00;;;3.01;100.00
7058;BME280;3570;43.080;25.628;2023-02-04T06:07:22;-19544.81;;;3.14;100.00
7058;BME280;3570;43.080;25.628;2023-02-04T06:10:06;-19547.47;;;3.23;100.00
7058;BME280;3570;43.080;25.628;2023-02-04T06:12:50;-19542.91;;;3.07;100.00
7058;BME280;3570;43.080;25.628;2023-02-04T06:15:34;-19546.88;;;3.21;100.00
7058;BME280;3570;43.080;25.628;2023-02-04T06:18:18;-19554.66;;;3.47;100.00
7058;BME280;3570;43.080;25.628;2023-02-04T06:21:02;-19556.25;;;3.53;100.00
7058;BME280;3570;43.080;25.628;2023-02-04T06:23:47;-19555.09;;;3.49;100.00
7058;BME280;3570;43.080;25.628;2023-02-04T06:26:31;-19553.19;;;3.42;100.00
7058;BME280;3570;43.080;25.628;2023-02-04T06:29:16;-19554.06;;;3.45;100.00
7058;BME280;3570;43.080;25.628;2023-02-04T06:32:00;-19554.94;;;3.48;100.00
7058;BME280;3570;43.080;25.628;2023-02-04T06:34:44;-19555.69;;;3.51;100.00
7058;BME280;3570;43.080;25.628;2023-02-04T06:37:29;-19555.25;;;3.49;100.00
7058;BME280;3570;43.080;25.628;2023-02-04T06:40:13;-19548.63;;;3.27;100.00
7058;BME280;3570;43.080;25.628;2023-02-04T06:42:58;-19558.31;;;3.60;100.00
7058;BME280;3570;43.080;25.628;2023-02-04T06:45:42;-19558.91;;;3.62;100.00
7058;BME280;3570;43.080;25.628;2023-02-04T06:48:26;-19560.53;;;3.67;100.00
7058;BME280;3570;43.080;25.628;2023-02-04T06:51:10;-19562.72;;;3.75;100.00
7058;BME280;3570;43.080;25.628;2023-02-04T06:53:54;-19563.16;;;3.76;100.00
7058;BME280;3570;43.080;25.628;2023-02-04T06:56:38;-19564.91;;;3.82;100.00
7058;BME280;3570;43.080;25.628;2023-02-04T06:59:22;-19565.06;;;3.83;100.00
7058;BME280;3570;43.080;25.628;2023-02-04T07:02:09;-19565.94;;;3.86;100.00
7058;BME280;3570;43.080;25.628;2023-02-04T07:04:54;-19566.97;;;3.90;100.00
7058;BME280;3570;43.080;25.628;2023-02-04T07:07:38;-19552.88;;;3.41;100.00
7058;BME280;3570;43.080;25.628;2023-02-04T07:10:22;-19560.97;;;3.69;100.00
7058;BME280;3570;43.080;25.628;2023-02-04T07:13:06;-19567.72;;;3.92;100.00
7058;BME280;3570;43.080;25.628;2023-02-04T07:15:50;-19569.19;;;3.97;100.00
7058;BME280;3570;43.080;25.628;2023-02-04T07:18:35;-19569.19;;;3.97;100.00
7058;BME280;3570;43.080;25.628;2023-02-04T07:21:19;-19567.13;;;3.90;100.00
7058;BME280;3570;43.080;25.628;2023-02-04T07:24:03;-19569.47;;;3.98;100.00
7058;BME280;3570;43.080;25.628;2023-02-04T07:26:47;-19570.06;;;4.00;100.00
7058;BME280;3570;43.080;25.628;2023-02-04T07:29:31;-19573.28;;;4.11;100.00
7058;BME280;3570;43.080;25.628;2023-02-04T07:32:15;-19572.84;;;4.10;100.00
7058;BME280;3570;43.080;25.628;2023-02-04T07:34:59;-19572.84;;;4.10;100.00
7058;BME280;3570;43.080;25.628;2023-02-04T07:37:43;-19565.94;;;3.86;100.00
7058;BME280;3570;43.080;25.628;2023-02-04T07:40:27;-19572.56;;;4.09;100.00
7058;BME280;3570;43.080;25.628;2023-02-04T07:43:11;-19566.09;;;3.87;100.00
7058;BME280;3570;43.080;25.628;2023-02-04T07:45:55;-19572.56;;;4.09;100.00
7058;BME280;3570;43.080;25.628;2023-02-04T07:48:39;-19564.47;;;3.81;100.00
7058;BME280;3570;43.080;25.628;2023-02-04T07:51:23;-19572.84;;;4.10;100.00
7058;BME280;3570;43.080;25.628;2023-02-04T07:54:07;-19572.25;;;4.08;100.00
7058;BME280;3570;43.080;25.628;2023-02-04T07:56:51;-19574.75;;;4.16;100.00
7058;BME280;3570;43.080;25.628;2023-02-04T07:59:35;-19573.88;;;4.13;100.00
7058;BME280;3570;43.080;25.628;2023-02-04T08:02:19;-19576.94;;;4.24;100.00
7058;BME280;3570;43.080;25.628;2023-02-04T08:05:03;-19577.09;;;4.24;100.00
7058;BME280;3570;43.080;25.628;2023-02-04T08:07:47;-19567.41;;;3.91;100.00
7058;BME280;3570;43.080;25.628;2023-02-04T08:10:31;-19570.78;;;4.03;100.00
7058;BME280;3570;43.080;25.628;2023-02-04T08:13:15;-19572.41;;;4.08;100.00
7058;BME280;3570;43.080;25.628;2023-02-04T08:15:59;-19584.13;;;4.48;100.00
7058;BME280;3570;43.080;25.628;2023-02-04T08:18:43;-19584.44;;;4.49;100.00
7058;BME280;3570;43.080;25.628;2023-02-04T08:21:27;-19583.56;;;4.46;100.00
7058;BME280;3570;43.080;25.628;2023-02-04T08:24:11;-19587.94;;;4.61;100.00
7058;BME280;3570;43.080;25.628;2023-02-04T08:26:55;-19589.72;;;4.67;100.00
7058;BME280;3570;43.080;25.628;2023-02-04T08:29:41;-19594.09;;;4.83;100.00
7058;BME280;3570;43.080;25.628;2023-02-04T08:32:25;-19594.09;;;4.83;100.00
7058;BME280;3570;43.080;25.628;2023-02-04T08:35:10;-19588.38;;;4.63;100.00
7058;BME280;3570;43.080;25.628;2023-02-04T08:37:54;-19597.91;;;4.96;100.00
7058;BME280;3570;43.080;25.628;2023-02-04T08:40:38;-19601.72;;;5.09;100.00
7058;BME280;3570;43.080;25.628;2023-02-04T08:43:22;-19600.25;;;5.04;100.00
7058;BME280;3570;43.080;25.628;2023-02-04T08:46:06;-19599.38;;;5.01;100.00
7058;BME280;3570;43.080;25.628;2023-02-04T08:48:50;-19599.97;;;5.03;100.00
7058;BME280;3570;43.080;25.628;2023-02-04T08:51:34;-19597.47;;;4.94;100.00
7058;BME280;3570;43.080;25.628;2023-02-04T08:54:18;-19597.63;;;4.95;100.00
7058;BME280;3570;43.080;25.628;2023-02-04T08:57:03;-19580.63;;;4.36;100.00
7058;BME280;3570;43.080;25.628;2023-02-04T08:59:47;-19589.84;;;4.68;100.00
7058;BME280;3570;43.080;25.628;2023-02-04T09:02:31;-19582.97;;;4.44;100.00
7058;BME280;3570;43.080;25.628;2023-02-04T09:05:15;-19576.22;;;4.21;100.00
7058;BME280;3570;43.080;25.628;2023-02-04T09:08:00;-19574.31;;;4.15;100.00
7058;BME280;3570;43.080;25.628;2023-02-04T09:10:44;-19571.81;;;4.06;100.00
7058;BME280;3570;43.080;25.628;2023-02-04T09:13:29;-19571.53;;;4.05;100.00
7058;BME280;3570;43.080;25.628;2023-02-04T09:16:13;-19566.38;;;3.88;100.00
7058;BME280;3570;43.080;25.628;2023-02-04T09:18:57;-19565.06;;;3.83;100.00
7058;BME280;3570;43.080;25.628;2023-02-04T09:21:44;-19564.47;;;3.81;100.00
7058;BME280;3570;43.080;25.628;2023-02-04T09:24:28;-19563.16;;;3.76;100.00
7058;BME280;3570;43.080;25.628;2023-02-04T09:27:12;-19558.91;;;3.62;100.00
7058;BME280;3570;43.080;25.628;2023-02-04T09:29:57;-19553.91;;;3.45;100.00
7058;BME280;3570;43.080;25.628;2023-02-04T09:32:41;-19552.00;;;3.38;100.00
7058;BME280;3570;43.080;25.628;2023-02-04T09:35:26;-19550.41;;;3.33;100.00
7058;BME280;3570;43.080;25.628;2023-02-04T09:38:10;-19543.06;;;3.08;100.00
7058;BME280;3570;43.080;25.628;2023-02-04T09:41:01;-19540.72;;;3.00;100.00
7058;BME280;3570;43.080;25.628;2023-02-04T09:43:46;-19547.31;;;3.22;100.00
7058;BME280;3570;43.080;25.628;2023-02-04T09:46:31;-19545.09;;;3.15;100.00
7058;BME280;3570;43.080;25.628;2023-02-04T09:49:16;-19540.13;;;2.98;100.00
7058;BME280;3570;43.080;25.628;2023-02-04T09:52:00;-19539.25;;;2.95;100.00
7058;BME280;3570;43.080;25.628;2023-02-04T09:54:44;-19547.31;;;3.22;100.00
7058;BME280;3570;43.080;25.628;2023-02-04T09:57:28;-19549.06;;;3.28;100.00
7058;BME280;3570;43.080;25.628;2023-02-04T10:00:19;-19548.19;;;3.25;100.00
7058;BME280;3570;43.080;25.628;2023-02-04T10:03:16;-19552.88;;;3.41;100.00
7058;BME280;3570;43.080;25.628;2023-02-04T10:06:01;-19553.63;;;3.44;100.00
7058;BME280;3570;43.080;25.628;2023-02-04T10:08:46;-19542.75;;;3.07;100.00
7058;BME280;3570;43.080;25.628;2023-02-04T10:11:35;-19551.56;;;3.37;100.00
7058;BME280;3570;43.080;25.628;2023-02-04T10:14:21;-19558.63;;;3.61;100.00
7058;BME280;3570;43.080;25.628;2023-02-04T10:17:07;-19566.25;;;3.87;100.00
7058;BME280;3570;43.080;25.628;2023-02-04T10:19:52;-19567.72;;;3.92;100.00
7058;BME280;3570;43.080;25.628;2023-02-04T10:22:37;-19570.06;;;4.00;100.00
7058;BME280;3570;43.080;25.628;2023-02-04T10:25:23;-19568.72;;;3.96;100.00
7058;BME280;3570;43.080;25.628;2023-02-04T10:28:07;-19560.38;;;3.67;100.00
7058;BME280;3570;43.080;25.628;2023-02-04T10:30:51;-19565.94;;;3.86;100.00
7058;BME280;3570;43.080;25.628;2023-02-04T10:33:35;-19565.38;;;3.84;100.00
7058;BME280;3570;43.080;25.628;2023-02-04T10:36:21;-19565.06;;;3.83;100.00
7058;BME280;3570;43.080;25.628;2023-02-04T10:39:13;-19550.69;;;3.34;100.00
7058;BME280;3570;43.080;25.628;2023-02-04T10:41:59;-19552.75;;;3.41;100.00
7058;BME280;3570;43.080;25.628;2023-02-04T10:44:46;-19568.88;;;3.96;100.00
7058;BME280;3570;43.080;25.628;2023-02-04T10:47:30;-19566.25;;;3.87;100.00
7058;BME280;3570;43.080;25.628;2023-02-04T10:50:16;-19561.09;;;3.69;100.00
7058;BME280;3570;43.080;25.628;2023-02-04T10:53:01;-19567.41;;;3.91;100.00
7058;BME280;3570;43.080;25.628;2023-02-04T10:56:19;-19578.28;;;4.28;100.00
7058;BME280;3570;43.080;25.628;2023-02-04T10:59:04;-19579.28;;;4.32;100.00
7058;BME280;3570;43.080;25.628;2023-02-04T11:01:48;-19575.63;;;4.19;100.00
7058;BME280;3570;43.080;25.628;2023-02-04T11:04:32;-19576.66;;;4.23;100.00
7058;BME280;3570;43.080;25.628;2023-02-04T11:07:22;-19581.94;;;4.41;100.00
7058;BME280;3570;43.080;25.628;2023-02-04T11:10:15;-19585.91;;;4.54;100.00
7058;BME280;3570;43.080;25.628;2023-02-04T11:13:04;-19590.75;;;4.71;100.00
7058;BME280;3570;43.080;25.628;2023-02-04T11:16:05;-19586.03;;;4.55;100.00
7058;BME280;3570;43.080;25.628;2023-02-04T11:19:01;-19593.06;;;4.79;100.00
7058;BME280;3570;43.080;25.628;2023-02-04T11:21:45;-19590.28;;;4.69;100.00
7058;BME280;3570;43.080;25.628;2023-02-04T11:24:32;-19598.22;;;4.97;100.00
7058;BME280;3570;43.080;25.628;2023-02-04T11:27:23;-19599.97;;;5.03;100.00
7058;BME280;3570;43.080;25.628;2023-02-04T11:30:21;-19603.34;;;5.14;100.00
7058;BME280;3570;43.080;25.628;2023-02-04T11:33:21;-19607.75;;;5.29;100.00
7058;BME280;3570;43.080;25.628;2023-02-04T11:36:08;-19604.22;;;5.17;100.00
7058;BME280;3570;43.080;25.628;2023-02-04T11:38:52;-19616.09;;;5.58;100.00
7058;BME280;3570;43.080;25.628;2023-02-04T11:41:36;-19616.38;;;5.59;100.00
7058;BME280;3570;43.080;25.628;2023-02-04T11:44:20;-19616.69;;;5.60;100.00
7058;BME280;3570;43.080;25.628;2023-02-04T11:47:06;-19621.66;;;5.77;100.00
7058;BME280;3570;43.080;25.628;2023-02-04T11:49:54;-19622.84;;;5.81;100.00
7058;BME280;3570;43.080;25.628;2023-02-04T11:52:38;-19622.53;;;5.80;100.00
7058;BME280;3570;43.080;25.628;2023-02-04T11:55:23;-19628.84;;;6.02;100.00
7058;BME280;3570;43.080;25.628;2023-02-04T11:58:17;-19628.13;;;5.99;100.00
7058;BME280;3570;43.080;25.628;2023-02-04T12:01:02;-19631.34;;;6.10;100.00
7058;BME280;3570;43.080;25.628;2023-02-04T12:03:48;-19634.28;;;6.20;100.00
7058;BME280;3570;43.080;25.628;2023-02-04T12:06:35;-19631.78;;;6.12;100.00
7058;BME280;3570;43.080;25.628;2023-02-04T12:09:25;-19635.44;;;6.24;100.00
7058;BME280;3570;43.080;25.628;2023-02-04T12:12:10;-19637.19;;;6.30;100.00
7058;BME280;3570;43.080;25.628;2023-02-04T12:15:01;-19637.50;;;6.31;100.00
7058;BME280;3570;43.080;25.628;2023-02-04T12:17:59;-19642.47;;;6.48;100.00
7058;BME280;3570;43.080;25.628;2023-02-04T12:20:43;-19646.28;;;6.61;100.00
7058;BME280;3570;43.080;25.628;2023-02-04T12:23:28;-19636.03;;;6.26;100.00
7058;BME280;3570;43.080;25.628;2023-02-04T12:26:12;-19646.88;;;6.63;100.00
7058;BME280;3570;43.080;25.628;2023-02-04T12:28:57;-19653.31;;;6.86;100.00
7058;BME280;3570;43.080;25.628;2023-02-04T12:31:44;-19658.28;;;7.03;100.00
7058;BME280;3570;43.080;25.628;2023-02-04T12:34:28;-19657.13;;;6.99;100.00
7058;BME280;3570;43.080;25.628;2023-02-04T12:37:12;-19661.06;;;7.12;100.00
7058;BME280;3570;43.080;25.628;2023-02-04T12:39:56;-19660.34;;;7.10;100.00
7058;BME280;3570;43.080;25.628;2023-02-04T12:42:40;-19655.06;;;6.92;100.00
7058;BME280;3570;43.080;25.628;2023-02-04T12:45:24;-19653.00;;;6.85;100.00
7058;BME280;3570;43.080;25.628;2023-02-04T12:48:08;-19631.63;;;6.11;100.00
7058;BME280;3570;43.080;25.628;2023-02-04T12:50:52;-19634.72;;;6.22;100.00
7058;BME280;3570;43.080;25.628;2023-02-04T12:53:36;-19633.09;;;6.16;100.00
7058;BME280;3570;43.080;25.628;2023-02-04T12:56:20;-19631.34;;;6.10;100.00
7058;BME280;3570;43.080;25.628;2023-02-04T12:59:06;-19635.28;;;6.24;100.00
7058;BME280;3570;43.080;25.628;2023-02-04T13:01:50;-19641.59;;;6.45;100.00
7058;BME280;3570;43.080;25.628;2023-02-04T13:04:34;-19656.81;;;6.98;100.00
7058;BME280;3570;43.080;25.628;2023-02-04T13:07:19;-19659.91;;;7.08;100.00
7058;BME280;3570;43.080;25.628;2023-02-04T13:10:04;-19702.47;;;8.54;100.00
7058;BME280;3570;43.080;25.628;2023-02-04T13:12:49;-19806.66;;;12.13;100.00
7058;BME280;3570;43.080;25.628;2023-02-04T13:15:33;-19866.56;;;14.19;100.00
7058;BME280;3570;43.080;25.628;2023-02-04T13:18:17;-19870.50;;;14.33;95.77
7058;BME280;3570;43.080;25.628;2023-02-04T13:21:01;-19829.41;;;12.91;97.21
7058;BME280;3570;43.080;25.628;2023-02-04T13:23:45;-19796.59;;;11.78;100.00
7058;BME280;3570;43.080;25.628;2023-02-04T13:26:29;-19756.28;;;10.39;100.00
7058;BME280;3570;43.080;25.628;2023-02-04T13:29:13;-19733.78;;;9.62;100.00
7058;BME280;3570;43.080;25.628;2023-02-04T13:31:57;-19705.13;;;8.64;100.00
7058;BME280;3570;43.080;25.628;2023-02-04T13:34:41;-19677.31;;;7.68;100.00
7058;BME280;3570;43.080;25.628;2023-02-04T13:37:25;-19667.38;;;7.34;100.00
7058;BME280;3570;43.080;25.628;2023-02-04T13:40:10;-19653.91;;;6.88;100.00
7058;BME280;3570;43.080;25.628;2023-02-04T13:42:54;-19638.97;;;6.36;100.00
7058;BME280;3570;43.080;25.628;2023-02-04T13:45:38;-19626.66;;;5.94;100.00
7058;BME280;3570;43.080;25.628;2023-02-04T13:48:23;-19631.63;;;6.11;100.00
7058;BME280;3570;43.080;25.628;2023-02-04T13:51:07;-19624.59;;;5.87;100.00
7058;BME280;3570;43.080;25.628;2023-02-04T13:53:51;-19620.34;;;5.72;100.00
7058;BME280;3570;43.080;25.628;2023-02-04T13:56:35;-19620.50;;;5.73;100.00
7058;BME280;3570;43.080;25.628;2023-02-04T13:59:20;-19614.34;;;5.52;100.00
7058;BME280;3570;43.080;25.628;2023-02-04T14:02:04;-19606.56;;;5.25;100.00
7058;BME280;3570;43.080;25.628;2023-02-04T14:04:48;-19609.06;;;5.34;100.00
7058;BME280;3570;43.080;25.628;2023-02-04T14:07:32;-19605.84;;;5.23;100.00
7058;BME280;3570;43.080;25.628;2023-02-04T14:10:17;-19609.66;;;5.36;100.00
7058;BME280;3570;43.080;25.628;2023-02-04T14:13:01;-19603.63;;;5.15;100.00
7058;BME280;3570;43.080;25.628;2023-02-04T14:15:45;-19606.41;;;5.25;100.00
7058;BME280;3570;43.080;25.628;2023-02-04T14:18:29;-19597.34;;;4.94;100.00
7058;BME280;3570;43.080;25.628;2023-02-04T14:21:14;-19595.13;;;4.86;100.00
7058;BME280;3570;43.080;25.628;2023-02-04T14:23:58;-19587.94;;;4.61;100.00
7058;BME280;3570;43.080;25.628;2023-02-04T14:26:42;-19582.22;;;4.42;100.00
7058;BME280;3570;43.080;25.628;2023-02-04T14:29:26;-19579.88;;;4.34;100.00
7058;BME280;3570;43.080;25.628;2023-02-04T14:32:10;-19573.56;;;4.12;100.00
7058;BME280;3570;43.080;25.628;2023-02-04T14:34:54;-19568.44;;;3.95;100.00